Time;durP1;ratioP1;P1;durP2;ratioP2;P2;SDS_P1;SDS_P2;PMS_P1;PMS_P2;Temp;Humidity;BMP_temperature;BMP_pressure;BME280_temperature;BME280_humidity;BME280_pressure;Samples;Min_cycle;Max_cycle;Signal;HPM_P1;HPM_P2
2021/05/10 00:00:15;;;;;;;22.77;4.85;;;15.50;99.90;;;;;;4961001;28;20023;-69
2021/05/10 00:02:40;;;;;;;11.25;3.65;;;15.40;99.90;;;;;;4961197;28;20018;-68
2021/05/10 00:05:07;;;;;;;11.65;3.50;;;15.30;99.90;;;;;;4958458;28;20037;-68
2021/05/10 00:07:32;;;;;;;13.25;3.85;;;15.40;99.90;;;;;;4956475;28;20500;-70
2021/05/10 00:09:59;;;;;;;7.95;2.90;;;15.30;99.90;;;;;;4955935;28;20031;-70
2021/05/10 00:12:25;;;;;;;6.97;2.85;;;15.20;99.90;;;;;;4962708;28;20587;-70
2021/05/10 00:14:51;;;;;;;6.70;3.10;;;15.10;99.90;;;;;;4960925;28;20035;-69
2021/05/10 00:17:17;;;;;;;8.27;3.05;;;15.10;99.90;;;;;;4959132;28;20572;-70
2021/05/10 00:19:42;;;;;;;6.03;2.70;;;15.10;99.90;;;;;;4957059;28;20027;-67
2021/05/10 00:22:08;;;;;;;7.28;2.70;;;14.90;99.90;;;;;;4957562;28;20098;-68
2021/05/10 00:24:34;;;;;;;4.25;3.10;;;14.70;99.90;;;;;;4962766;28;20066;-68
2021/05/10 00:27:00;;;;;;;7.43;3.28;;;14.70;99.90;;;;;;4965174;28;20451;-67
2021/05/10 00:29:26;;;;;;;6.80;3.03;;;14.50;99.90;;;;;;4968645;28;20025;-70
2021/05/10 00:31:51;;;;;;;9.77;3.35;;;14.50;99.90;;;;;;4961368;28;20027;-70
2021/05/10 00:34:17;;;;;;;6.03;3.10;;;14.40;99.90;;;;;;4964281;28;21266;-67
2021/05/10 00:36:43;;;;;;;8.60;3.08;;;14.50;99.90;;;;;;4961953;28;20030;-70
2021/05/10 00:39:09;;;;;;;7.40;3.17;;;14.40;99.90;;;;;;4969004;28;20486;-69
2021/05/10 00:41:35;;;;;;;9.23;3.20;;;14.40;99.90;;;;;;4966801;28;20030;-69
2021/05/10 00:44:01;;;;;;;3.47;3.17;;;14.40;99.90;;;;;;4962546;28;20110;-68
2021/05/10 00:46:27;;;;;;;6.68;3.10;;;14.40;99.90;;;;;;4965468;28;20089;-69
2021/05/10 00:48:53;;;;;;;5.00;3.25;;;14.40;99.90;;;;;;4962846;28;21056;-70
2021/05/10 00:51:19;;;;;;;4.60;3.00;;;14.40;99.90;;;;;;4965205;28;20023;-69
2021/05/10 00:53:44;;;;;;;4.45;3.15;;;14.50;99.90;;;;;;4962831;28;20038;-70
2021/05/10 00:56:10;;;;;;;6.25;3.10;;;14.40;99.90;;;;;;4962364;28;20122;-70
2021/05/10 00:58:38;;;;;;;5.53;3.10;;;14.40;99.90;;;;;;4960081;28;20071;-69
2021/05/10 01:01:04;;;;;;;7.28;3.58;;;14.30;99.90;;;;;;4960361;28;20027;-71
2021/05/10 01:03:30;;;;;;;6.75;3.72;;;14.40;99.90;;;;;;4965719;28;20080;-70
2021/05/10 01:05:56;;;;;;;5.95;3.08;;;14.20;99.90;;;;;;4963543;28;20392;-69
2021/05/10 01:08:21;;;;;;;4.93;3.35;;;14.30;99.90;;;;;;4959208;28;20957;-69
2021/05/10 01:10:48;;;;;;;6.55;3.08;;;14.30;99.90;;;;;;4964980;28;20062;-69
2021/05/10 01:13:15;;;;;;;5.88;3.33;;;14.30;99.90;;;;;;4967369;28;20031;-70
2021/05/10 01:15:41;;;;;;;7.10;3.80;;;14.30;99.90;;;;;;4965831;28;20114;-68
2021/05/10 01:18:06;;;;;;;5.70;3.13;;;14.20;99.90;;;;;;4965668;28;20812;-69
2021/05/10 01:20:34;;;;;;;9.90;3.53;;;14.20;99.90;;;;;;4962771;28;20062;-69
2021/05/10 01:23:00;;;;;;;6.05;4.00;;;14.30;99.90;;;;;;4961835;28;20119;-68
2021/05/10 01:25:29;;;;;;;7.93;3.80;;;14.30;99.90;;;;;;4960966;28;20039;-70
2021/05/10 01:27:56;;;;;;;7.97;3.88;;;14.40;99.90;;;;;;4961494;28;20569;-69
2021/05/10 01:30:27;;;;;;;4.50;3.17;;;14.40;99.90;;;;;;4961556;28;20514;-69
2021/05/10 01:32:55;;;;;;;5.82;3.50;;;14.20;99.90;;;;;;4962716;28;20131;-70
2021/05/10 01:35:27;;;;;;;8.95;3.75;;;14.20;99.90;;;;;;4961534;28;20050;-70
2021/05/10 01:37:53;;;;;;;5.78;3.85;;;14.30;99.90;;;;;;4958797;28;20035;-68
2021/05/10 01:40:19;;;;;;;7.78;3.65;;;14.20;99.90;;;;;;4967471;28;20057;-69
2021/05/10 01:42:45;;;;;;;5.55;4.00;;;14.20;99.90;;;;;;4966337;28;20042;-70
2021/05/10 01:45:12;;;;;;;7.47;4.20;;;14.20;99.90;;;;;;4961242;28;20113;-69
2021/05/10 01:47:38;;;;;;;6.15;3.72;;;14.30;99.90;;;;;;4961163;28;20062;-68
2021/05/10 01:50:19;;;;;;;5.38;3.65;;;14.30;99.90;;;;;;4963759;28;20065;-67
2021/05/10 01:52:48;;;;;;;6.53;4.03;;;14.20;99.90;;;;;;4962744;28;20018;-69
2021/05/10 01:55:16;;;;;;;8.43;3.40;;;14.30;99.90;;;;;;4961540;28;20029;-67
2021/05/10 01:57:47;;;;;;;9.75;3.88;;;14.30;99.90;;;;;;4966902;28;20081;-69
2021/05/10 02:00:16;;;;;;;10.27;3.70;;;14.40;99.90;;;;;;4958823;28;20090;-68
2021/05/10 02:02:43;;;;;;;5.03;3.83;;;14.30;99.90;;;;;;4959470;28;20029;-68
2021/05/10 02:05:16;;;;;;;6.50;4.13;;;14.30;99.90;;;;;;4964654;28;20634;-67
2021/05/10 02:07:48;;;;;;;6.15;2.78;;;14.20;99.90;;;;;;4963102;28;20522;-68
2021/05/10 02:10:16;;;;;;;8.35;3.35;;;13.70;99.90;;;;;;4962805;28;20399;-67
2021/05/10 02:13:11;;;;;;;5.50;2.35;;;13.60;99.90;;;;;;4962184;28;20065;-69
2021/05/10 02:15:57;;;;;;;6.63;2.15;;;13.30;99.90;;;;;;4962235;28;20138;-69
2021/05/10 02:18:25;;;;;;;3.38;1.77;;;13.20;99.90;;;;;;4965237;28;20031;-70
2021/05/10 02:20:51;;;;;;;9.73;2.17;;;13.10;99.90;;;;;;4961721;28;20045;-69
2021/05/10 02:23:28;;;;;;;7.35;2.08;;;13.20;99.90;;;;;;4961157;28;20023;-68
2021/05/10 02:25:57;;;;;;;7.13;1.63;;;13.00;99.90;;;;;;4960021;28;20102;-67
2021/05/10 02:28:26;;;;;;;9.48;1.92;;;13.10;99.90;;;;;;4960834;28;20098;-67
2021/05/10 02:30:56;;;;;;;8.60;1.50;;;13.00;99.90;;;;;;4963373;28;20086;-68
2021/05/10 02:33:25;;;;;;;4.78;1.33;;;12.90;99.90;;;;;;4963270;28;20039;-67
2021/05/10 02:35:52;;;;;;;7.70;1.70;;;12.90;99.90;;;;;;4960211;28;20023;-67
2021/05/10 02:38:20;;;;;;;6.88;1.65;;;13.10;99.90;;;;;;4965467;28;20054;-68
2021/05/10 02:40:46;;;;;;;10.57;1.92;;;13.00;99.90;;;;;;4959623;28;20491;-67
2021/05/10 02:43:13;;;;;;;6.50;1.50;;;13.10;99.90;;;;;;4964057;28;20058;-67
2021/05/10 02:45:39;;;;;;;7.88;1.50;;;13.10;99.90;;;;;;4963830;28;20015;-67
2021/05/10 02:48:05;;;;;;;3.90;1.20;;;13.20;99.90;;;;;;4957380;28;20101;-67
2021/05/10 02:50:31;;;;;;;4.65;1.40;;;13.00;99.90;;;;;;4960981;28;20503;-67
2021/05/10 02:52:57;;;;;;;2.45;1.00;;;13.10;99.90;;;;;;4964162;28;20430;-69
2021/05/10 02:55:23;;;;;;;6.80;1.40;;;13.10;99.90;;;;;;4964573;28;20039;-68
2021/05/10 02:57:50;;;;;;;5.07;1.45;;;13.00;99.90;;;;;;4959112;28;20038;-69
2021/05/10 03:00:20;;;;;;;10.48;1.70;;;12.80;99.90;;;;;;4960444;28;20404;-68
2021/05/10 03:02:46;;;;;;;6.50;1.40;;;12.90;99.90;;;;;;4965064;28;20578;-68
2021/05/10 03:05:13;;;;;;;6.20;1.20;;;12.90;99.90;;;;;;4964582;28;20131;-70
2021/05/10 03:07:40;;;;;;;6.25;1.58;;;12.90;99.90;;;;;;4963785;28;20023;-69
2021/05/10 03:10:08;;;;;;;2.38;1.10;;;13.00;99.90;;;;;;4964721;28;20023;-70
2021/05/10 03:12:34;;;;;;;4.82;1.60;;;12.70;99.90;;;;;;4962688;28;20038;-71
2021/05/10 03:15:00;;;;;;;6.63;1.70;;;12.70;99.90;;;;;;4963276;28;20027;-69
2021/05/10 03:17:26;;;;;;;6.32;1.35;;;12.80;99.90;;;;;;4964756;28;20093;-70
2021/05/10 03:19:51;;;;;;;5.13;1.73;;;12.80;99.90;;;;;;4963311;28;20084;-67
2021/05/10 03:22:17;;;;;;;4.05;1.20;;;13.00;99.90;;;;;;4958704;28;20111;-70
2021/05/10 03:24:43;;;;;;;11.90;1.80;;;12.90;99.90;;;;;;4962067;28;20027;-68
2021/05/10 03:27:08;;;;;;;4.93;1.48;;;12.90;99.90;;;;;;4959512;28;20531;-70
2021/05/10 03:29:34;;;;;;;4.38;1.35;;;13.10;99.90;;;;;;4962540;28;20033;-70
2021/05/10 03:32:00;;;;;;;6.97;1.48;;;13.00;99.90;;;;;;4960062;28;20031;-69
2021/05/10 03:34:26;;;;;;;6.57;1.42;;;13.00;99.90;;;;;;4961307;28;20027;-68
2021/05/10 03:36:51;;;;;;;6.65;1.77;;;12.90;99.90;;;;;;4960733;28;20027;-70
2021/05/10 03:39:17;;;;;;;9.15;1.90;;;12.90;99.90;;;;;;4956770;28;20081;-70
2021/05/10 03:41:42;;;;;;;5.80;1.25;;;12.90;99.90;;;;;;4961495;28;20026;-69
2021/05/10 03:44:08;;;;;;;8.85;1.17;;;12.80;99.90;;;;;;4961201;28;20035;-70
2021/05/10 03:46:34;;;;;;;9.05;1.50;;;13.00;99.90;;;;;;4961959;28;20072;-70
2021/05/10 03:48:59;;;;;;;5.68;1.30;;;13.00;99.90;;;;;;4954738;28;20499;-70
2021/05/10 03:51:25;;;;;;;8.68;1.90;;;12.90;99.90;;;;;;4961683;28;20030;-68
2021/05/10 03:53:51;;;;;;;7.80;1.60;;;12.90;99.90;;;;;;4952074;29;20067;-70
2021/05/10 03:56:16;;;;;;;8.02;1.55;;;12.90;99.90;;;;;;4961017;28;20403;-68
2021/05/10 03:58:42;;;;;;;4.57;1.40;;;12.80;99.90;;;;;;4970920;28;20053;-69
2021/05/10 04:01:09;;;;;;;6.82;1.42;;;12.80;99.90;;;;;;4956574;28;20104;-68
2021/05/10 04:03:41;;;;;;;5.97;1.38;;;12.70;99.90;;;;;;4956138;28;20039;-70
2021/05/10 04:11:10;;;;;;;9.27;1.50;;;12.60;99.90;;;;;;4959059;28;20046;-69
2021/05/10 04:13:44;;;;;;;9.45;1.60;;;12.70;99.90;;;;;;4965028;28;20038;-69
2021/05/10 04:16:10;;;;;;;12.18;1.85;;;12.70;99.90;;;;;;4961623;28;20447;-68
2021/05/10 04:18:36;;;;;;;8.77;1.45;;;12.80;99.90;;;;;;4969026;28;20117;-70
2021/05/10 04:21:02;;;;;;;9.35;1.42;;;12.90;99.90;;;;;;4958605;28;20027;-70
2021/05/10 04:23:28;;;;;;;9.82;1.27;;;12.70;99.90;;;;;;4969119;28;20111;-68
2021/05/10 04:25:54;;;;;;;5.55;1.35;;;12.90;99.90;;;;;;4963491;28;20114;-68
2021/05/10 04:28:22;;;;;;;9.23;1.60;;;12.70;99.90;;;;;;4955457;28;20028;-69
2021/05/10 04:30:49;;;;;;;10.32;1.70;;;12.60;99.90;;;;;;4963197;28;20026;-70
2021/05/10 04:33:15;;;;;;;4.72;1.60;;;12.80;99.90;;;;;;4957178;28;20035;-69
2021/05/10 04:35:41;;;;;;;11.55;1.70;;;12.60;99.90;;;;;;4958031;28;20074;-69
2021/05/10 04:38:09;;;;;;;7.90;1.60;;;12.40;99.90;;;;;;4954723;28;20098;-69
2021/05/10 04:40:36;;;;;;;6.97;1.60;;;12.40;99.90;;;;;;4961869;28;20066;-68
2021/05/10 04:43:02;;;;;;;8.20;1.40;;;12.40;99.90;;;;;;4955370;28;20030;-69
2021/05/10 04:45:28;;;;;;;6.57;1.73;;;12.70;99.90;;;;;;4956285;28;20509;-69
2021/05/10 04:47:54;;;;;;;9.25;1.90;;;12.50;99.90;;;;;;4964234;28;20030;-69
2021/05/10 04:50:20;;;;;;;5.38;1.60;;;12.70;99.90;;;;;;4958256;28;20575;-69
2021/05/10 04:52:45;;;;;;;7.05;1.65;;;12.50;99.90;;;;;;4969716;28;20854;-69
2021/05/10 04:55:12;;;;;;;9.27;1.80;;;12.50;99.90;;;;;;4960616;28;20046;-69
2021/05/10 04:57:38;;;;;;;8.57;1.35;;;12.40;99.90;;;;;;4963251;28;20031;-70
2021/05/10 05:00:09;;;;;;;8.43;1.58;;;12.60;99.90;;;;;;4964148;28;20035;-69
2021/05/10 05:02:35;;;;;;;7.38;1.00;;;12.60;99.90;;;;;;4965303;28;20027;-69
2021/05/10 05:05:01;;;;;;;12.05;2.20;;;12.60;99.90;;;;;;4960875;28;20476;-69
2021/05/10 05:07:27;;;;;;;6.43;1.50;;;12.70;99.90;;;;;;4968311;28;20539;-70
2021/05/10 05:09:53;;;;;;;9.00;1.60;;;12.80;99.90;;;;;;4954657;28;20034;-68
2021/05/10 05:12:18;;;;;;;8.60;1.80;;;12.70;99.90;;;;;;4968487;28;20027;-67
2021/05/10 05:14:44;;;;;;;5.93;1.95;;;12.70;99.90;;;;;;4958106;28;20037;-68
2021/05/10 05:17:10;;;;;;;6.15;1.95;;;12.70;99.90;;;;;;4969558;28;20646;-68
2021/05/10 05:19:36;;;;;;;8.90;2.40;;;12.60;99.90;;;;;;4964741;28;20038;-69
2021/05/10 05:22:02;;;;;;;7.22;2.30;;;12.90;99.90;;;;;;4963791;28;20514;-68
2021/05/10 05:24:28;;;;;;;6.28;1.98;;;12.60;99.90;;;;;;4966128;28;20031;-69
2021/05/10 05:26:54;;;;;;;8.88;2.08;;;12.30;99.90;;;;;;4967377;28;20026;-69
2021/05/10 05:29:22;;;;;;;5.90;1.83;;;12.30;99.90;;;;;;4968720;28;20161;-69
2021/05/10 05:31:49;;;;;;;8.88;2.13;;;12.30;99.90;;;;;;4968737;28;20030;-69
2021/05/10 05:34:16;;;;;;;6.05;2.13;;;12.30;99.90;;;;;;4964577;28;20512;-68
2021/05/10 05:36:42;;;;;;;6.50;2.22;;;12.40;99.90;;;;;;4957549;28;20034;-68
2021/05/10 05:39:08;;;;;;;7.38;2.42;;;12.40;99.90;;;;;;4960967;28;20031;-69
2021/05/10 05:41:35;;;;;;;8.10;2.33;;;12.50;99.90;;;;;;4964820;28;20495;-68
2021/05/10 05:44:02;;;;;;;7.32;2.30;;;12.70;99.90;;;;;;4968794;28;20036;-70
2021/05/10 05:46:29;;;;;;;6.47;2.17;;;12.60;99.90;;;;;;4964555;28;20035;-69
2021/05/10 05:48:55;;;;;;;11.43;2.58;;;12.50;99.90;;;;;;4967268;28;20019;-70
2021/05/10 05:51:22;;;;;;;8.65;3.20;;;12.50;99.90;;;;;;4960840;28;20031;-69
2021/05/10 05:53:50;;;;;;;8.43;2.97;;;12.70;99.90;;;;;;4969255;28;20407;-71
2021/05/10 05:56:16;;;;;;;9.30;2.65;;;12.50;99.90;;;;;;4959624;28;20464;-68
2021/05/10 05:58:42;;;;;;;6.63;2.58;;;12.60;99.90;;;;;;4966202;28;20045;-68
2021/05/10 06:01:08;;;;;;;8.60;2.88;;;12.30;99.90;;;;;;4969144;28;20025;-69
2021/05/10 06:03:34;;;;;;;6.75;2.47;;;12.50;99.90;;;;;;4972865;28;20034;-68
2021/05/10 06:05:59;;;;;;;10.48;2.72;;;12.70;99.90;;;;;;4969737;28;20027;-68
2021/05/10 06:08:25;;;;;;;9.30;2.55;;;12.70;99.90;;;;;;4964442;28;20502;-69
2021/05/10 06:10:51;;;;;;;8.18;2.55;;;12.80;99.90;;;;;;4964775;28;20423;-68
2021/05/10 06:13:17;;;;;;;14.02;2.70;;;12.90;99.90;;;;;;4972736;28;20057;-70
2021/05/10 06:15:42;;;;;;;9.77;2.50;;;12.80;99.90;;;;;;4965920;28;20113;-68
2021/05/10 06:18:09;;;;;;;8.00;2.40;;;12.80;99.90;;;;;;4972284;28;20035;-68
2021/05/10 06:20:35;;;;;;;8.15;1.85;;;13.00;99.90;;;;;;4961529;28;20051;-70
2021/05/10 06:23:04;;;;;;;7.07;2.15;;;13.00;99.90;;;;;;4963455;28;20082;-67
2021/05/10 06:25:30;;;;;;;14.38;2.65;;;13.00;99.90;;;;;;4962625;28;20509;-69
2021/05/10 06:27:56;;;;;;;5.50;2.60;;;12.70;99.90;;;;;;4954054;28;20503;-69
2021/05/10 06:30:22;;;;;;;7.10;2.45;;;12.70;99.90;;;;;;4963010;28;20035;-69
2021/05/10 06:32:50;;;;;;;5.32;2.10;;;12.90;99.90;;;;;;4961662;28;20124;-68
2021/05/10 06:35:17;;;;;;;9.07;1.98;;;13.00;99.90;;;;;;4964164;28;20384;-68
2021/05/10 06:37:43;;;;;;;8.77;1.90;;;13.00;99.90;;;;;;4968017;28;20024;-69
2021/05/10 06:40:09;;;;;;;7.03;1.80;;;13.00;99.90;;;;;;4961248;28;20034;-69
2021/05/10 06:42:35;;;;;;;7.70;2.25;;;13.00;99.90;;;;;;4971027;28;20030;-68
2021/05/10 06:45:03;;;;;;;7.80;1.70;;;12.90;99.90;;;;;;4957479;28;20027;-68
2021/05/10 06:47:29;;;;;;;9.55;1.85;;;12.90;99.90;;;;;;4963418;28;20106;-69
2021/05/10 06:49:54;;;;;;;7.03;1.80;;;13.10;99.90;;;;;;4967807;28;20093;-69
2021/05/10 06:52:20;;;;;;;6.90;1.73;;;13.30;99.90;;;;;;4963386;28;20463;-68
2021/05/10 06:54:46;;;;;;;7.38;2.03;;;13.30;99.90;;;;;;4959555;28;20023;-69
2021/05/10 06:57:11;;;;;;;8.85;2.13;;;13.10;99.90;;;;;;4968594;28;20031;-70
2021/05/10 06:59:39;;;;;;;10.80;1.90;;;13.20;99.90;;;;;;4964722;28;20039;-71
2021/05/10 07:02:06;;;;;;;6.97;2.10;;;13.30;99.90;;;;;;4962243;28;20089;-71
2021/05/10 07:04:32;;;;;;;10.38;2.10;;;13.40;99.90;;;;;;4968179;28;20132;-70
2021/05/10 07:06:57;;;;;;;5.32;1.75;;;13.60;99.90;;;;;;4952839;28;20035;-70
2021/05/10 07:09:23;;;;;;;5.40;1.65;;;13.40;99.90;;;;;;4954206;28;20602;-70
2021/05/10 07:11:49;;;;;;;7.95;1.90;;;13.30;99.90;;;;;;4966686;28;20044;-71
2021/05/10 07:14:15;;;;;;;11.75;2.00;;;13.50;99.90;;;;;;4959934;28;20392;-69
2021/05/10 07:16:41;;;;;;;6.75;1.80;;;13.30;99.90;;;;;;4960732;28;20042;-69
2021/05/10 07:19:06;;;;;;;3.92;1.83;;;13.30;99.90;;;;;;4961162;28;20031;-71
2021/05/10 07:21:32;;;;;;;9.73;1.88;;;13.30;99.90;;;;;;4957194;28;20031;-69
2021/05/10 07:23:58;;;;;;;9.68;1.75;;;13.70;99.90;;;;;;4961481;28;20027;-69
2021/05/10 07:26:23;;;;;;;7.47;1.80;;;13.60;99.90;;;;;;4960094;28;20028;-71
2021/05/10 07:28:49;;;;;;;9.63;1.98;;;13.60;99.90;;;;;;4961991;28;20033;-71
2021/05/10 07:31:15;;;;;;;5.47;1.73;;;13.60;99.90;;;;;;4965851;28;20423;-70
2021/05/10 07:33:41;;;;;;;5.25;1.83;;;13.70;99.90;;;;;;4962725;28;20027;-71
2021/05/10 07:36:08;;;;;;;7.63;1.75;;;13.80;99.90;;;;;;4964665;28;20039;-70
2021/05/10 07:38:33;;;;;;;8.60;1.83;;;13.80;99.90;;;;;;4968525;28;20499;-70
2021/05/10 07:40:59;;;;;;;5.90;1.45;;;13.90;99.90;;;;;;4955511;28;20082;-69
2021/05/10 07:43:25;;;;;;;5.38;1.67;;;14.20;99.90;;;;;;4957632;28;20027;-70
2021/05/10 07:45:50;;;;;;;7.38;1.75;;;14.30;99.90;;;;;;4962517;28;20042;-69
2021/05/10 07:48:16;;;;;;;5.93;1.50;;;14.20;99.90;;;;;;4961752;28;20026;-69
2021/05/10 07:50:42;;;;;;;4.85;1.60;;;14.10;99.90;;;;;;4960674;28;20118;-69
2021/05/10 07:53:08;;;;;;;4.85;1.73;;;14.20;99.90;;;;;;4952849;28;20049;-71
2021/05/10 07:55:36;;;;;;;8.77;1.65;;;14.20;99.90;;;;;;4959582;28;20119;-70
2021/05/10 07:58:02;;;;;;;3.35;1.35;;;14.50;99.90;;;;;;4969748;28;20031;-70
2021/05/10 08:00:30;;;;;;;6.55;1.92;;;14.40;99.90;;;;;;4960256;28;20086;-70
2021/05/10 08:03:04;;;;;;;6.25;1.42;;;14.60;99.90;;;;;;4955802;28;20446;-70
2021/05/10 08:05:30;;;;;;;4.07;2.05;;;14.80;99.90;;;;;;4957048;28;20142;-70
2021/05/10 08:07:56;;;;;;;8.88;1.90;;;14.90;99.90;;;;;;4957911;28;20531;-71
2021/05/10 08:10:22;;;;;;;4.57;1.95;;;15.10;99.90;;;;;;4957882;28;20046;-69
2021/05/10 08:12:48;;;;;;;5.90;2.00;;;15.30;99.90;;;;;;4960627;28;20065;-71
2021/05/10 08:15:14;;;;;;;8.88;1.83;;;15.50;99.90;;;;;;4955634;28;20027;-71
2021/05/10 08:17:40;;;;;;;7.65;1.83;;;15.40;99.90;;;;;;4951290;28;20643;-71
2021/05/10 08:20:07;;;;;;;6.95;2.40;;;15.70;99.90;;;;;;4963053;28;20060;-70
2021/05/10 08:22:32;;;;;;;7.28;2.38;;;15.30;99.90;;;;;;4955077;28;20440;-71
2021/05/10 08:24:59;;;;;;;9.27;1.83;;;15.20;99.90;;;;;;4952556;28;20035;-70
2021/05/10 08:27:24;;;;;;;5.82;1.73;;;15.50;99.90;;;;;;4949257;28;20542;-71
2021/05/10 08:29:50;;;;;;;4.82;1.77;;;15.40;99.90;;;;;;4958206;28;20023;-71
2021/05/10 08:32:16;;;;;;;6.05;2.20;;;15.30;99.90;;;;;;4960401;28;20022;-69
2021/05/10 08:34:42;;;;;;;6.13;2.08;;;15.20;99.90;;;;;;4958860;28;20031;-71
2021/05/10 08:37:08;;;;;;;11.63;2.20;;;15.40;99.90;;;;;;4961123;28;20491;-71
2021/05/10 08:39:34;;;;;;;9.93;2.17;;;15.60;99.90;;;;;;4959051;28;20126;-71
2021/05/10 08:41:59;;;;;;;7.60;2.13;;;15.90;99.90;;;;;;4955356;28;20019;-71
2021/05/10 08:44:25;;;;;;;6.43;1.95;;;16.20;99.90;;;;;;4958141;28;20037;-70
2021/05/10 08:46:52;;;;;;;11.02;2.42;;;16.10;99.90;;;;;;4955550;28;20469;-70
2021/05/10 08:49:21;;;;;;;11.30;2.30;;;16.00;99.90;;;;;;4959702;28;20039;-70
2021/05/10 08:51:48;;;;;;;12.02;1.95;;;16.20;99.90;;;;;;4960374;28;20031;-69
2021/05/10 08:54:25;;;;;;;9.30;2.08;;;16.10;99.90;;;;;;4960666;28;20027;-70
2021/05/10 08:56:52;;;;;;;12.63;2.50;;;15.80;99.90;;;;;;4959248;28;20520;-70
2021/05/10 08:59:22;;;;;;;10.20;2.25;;;16.10;99.90;;;;;;4962855;28;20062;-70
2021/05/10 09:01:50;;;;;;;9.07;2.30;;;16.50;99.90;;;;;;4967454;28;20019;-69
2021/05/10 09:04:16;;;;;;;6.22;2.40;;;16.50;99.90;;;;;;4967782;28;20029;-69
2021/05/10 09:06:42;;;;;;;8.05;2.33;;;16.90;99.90;;;;;;4962777;28;20034;-71
2021/05/10 09:09:09;;;;;;;5.90;2.10;;;16.80;99.90;;;;;;4960855;28;20024;-70
2021/05/10 09:11:51;;;;;;;5.85;1.90;;;16.10;99.90;;;;;;4961029;28;20038;-70
2021/05/10 09:14:30;;;;;;;8.93;2.13;;;16.30;99.90;;;;;;4968614;28;20038;-70
2021/05/10 09:16:55;;;;;;;8.75;2.53;;;16.30;99.90;;;;;;4964477;28;20023;-70
2021/05/10 09:19:39;;;;;;;8.90;2.13;;;16.40;99.90;;;;;;4959544;28;20123;-69
2021/05/10 09:22:05;;;;;;;9.23;2.30;;;16.60;99.90;;;;;;4963338;28;20023;-70
2021/05/10 09:24:31;;;;;;;5.90;2.20;;;16.50;99.90;;;;;;4965133;28;20106;-70
2021/05/10 09:26:56;;;;;;;6.10;2.58;;;16.70;99.90;;;;;;4963621;28;20109;-70
2021/05/10 09:29:26;;;;;;;11.35;2.60;;;16.80;99.90;;;;;;4963416;28;20058;-70
2021/05/10 09:31:52;;;;;;;10.80;2.30;;;17.30;99.90;;;;;;4967785;28;20070;-70
2021/05/10 09:34:19;;;;;;;12.10;2.15;;;17.00;99.90;;;;;;4964519;28;20102;-70
2021/05/10 09:36:45;;;;;;;7.40;2.58;;;17.20;99.90;;;;;;4961579;28;20106;-70
2021/05/10 09:39:28;;;;;;;8.95;2.75;;;17.40;99.90;;;;;;4954137;28;20134;-71
2021/05/10 09:41:58;;;;;;;15.70;2.47;;;17.40;99.90;;;;;;4963999;28;20043;-69
2021/05/10 09:44:39;;;;;;;8.35;2.35;;;17.10;99.90;;;;;;4964774;28;20427;-70
2021/05/10 09:47:05;;;;;;;9.50;2.63;;;17.20;99.90;;;;;;4965294;28;20023;-71
2021/05/10 09:49:50;;;;;;;8.48;2.40;;;17.10;99.90;;;;;;4964926;28;20060;-71
2021/05/10 09:52:25;;;;;;;8.00;2.08;;;17.10;99.90;;;;;;4967606;28;20030;-70
2021/05/10 09:54:59;;;;;;;5.80;1.90;;;17.20;99.90;;;;;;4960296;28;20019;-70
2021/05/10 09:57:26;;;;;;;7.68;2.35;;;17.70;99.90;;;;;;4960178;28;20287;-71
2021/05/10 10:00:13;;;;;;;7.28;2.63;;;17.50;99.90;;;;;;4959638;28;20038;-70
2021/05/10 10:02:39;;;;;;;7.50;2.00;;;17.40;99.90;;;;;;4966627;28;20061;-70
2021/05/10 10:05:05;;;;;;;6.53;2.50;;;17.60;99.90;;;;;;4960700;28;20495;-70
2021/05/10 10:07:33;;;;;;;13.57;2.78;;;17.90;99.90;;;;;;4967409;28;20504;-71
2021/05/10 10:10:00;;;;;;;8.07;2.65;;;18.00;99.90;;;;;;4962520;28;20097;-71
2021/05/10 10:12:26;;;;;;;7.05;2.55;;;17.20;99.90;;;;;;4962995;28;20679;-70
2021/05/10 10:14:52;;;;;;;4.90;2.40;;;17.20;99.90;;;;;;4959542;28;20038;-70
2021/05/10 10:17:18;;;;;;;16.52;2.63;;;17.20;99.90;;;;;;4960377;28;20027;-70
2021/05/10 10:19:44;;;;;;;7.22;2.50;;;17.90;99.90;;;;;;4961559;28;20039;-71
2021/05/10 10:22:12;;;;;;;8.93;2.50;;;17.80;99.90;;;;;;4960142;28;20118;-71
2021/05/10 10:24:40;;;;;;;6.93;2.17;;;18.20;99.90;;;;;;4978477;28;20719;-71
2021/05/10 10:27:08;;;;;;;8.60;2.90;;;18.30;99.90;;;;;;4960850;28;20040;-71
2021/05/10 10:29:35;;;;;;;5.93;1.95;;;18.50;99.90;;;;;;4958112;28;20096;-71
2021/05/10 10:32:01;;;;;;;6.70;1.90;;;18.30;99.90;;;;;;4958865;28;20791;-71
2021/05/10 10:34:33;;;;;;;9.98;2.25;;;18.70;99.90;;;;;;4958617;28;20046;-71
2021/05/10 10:37:01;;;;;;;6.22;1.80;;;19.00;99.90;;;;;;4957961;28;20035;-70
2021/05/10 10:39:33;;;;;;;8.35;1.92;;;19.50;99.90;;;;;;4960878;28;20039;-69
2021/05/10 10:42:10;;;;;;;7.45;1.95;;;19.60;99.90;;;;;;4962205;28;20033;-69
2021/05/10 10:44:47;;;;;;;11.13;2.55;;;19.00;99.90;;;;;;4959621;28;20027;-70
2021/05/10 10:47:43;;;;;;;8.38;2.20;;;18.60;99.90;;;;;;4958828;28;20030;-70
2021/05/10 10:50:21;;;;;;;4.95;2.10;;;18.80;99.90;;;;;;4960255;28;20081;-70
2021/05/10 10:52:47;;;;;;;8.70;3.10;;;19.40;99.90;;;;;;4961231;28;20067;-70
2021/05/10 10:55:13;;;;;;;6.22;3.03;;;19.00;99.90;;;;;;4957123;28;20023;-70
2021/05/10 10:57:40;;;;;;;6.63;2.00;;;19.30;99.90;;;;;;4960702;28;20174;-76
2021/05/10 11:00:06;;;;;;;7.22;2.60;;;19.70;99.90;;;;;;4959303;28;20049;-74
2021/05/10 11:02:46;;;;;;;7.68;2.80;;;19.70;99.90;;;;;;4959472;28;20023;-74
2021/05/10 11:05:19;;;;;;;4.88;2.63;;;19.30;99.90;;;;;;4961401;28;20030;-76
2021/05/10 11:07:50;;;;;;;7.88;2.72;;;19.50;99.90;;;;;;4957635;28;20025;-77
2021/05/10 11:10:51;;;;;;;7.47;2.20;;;20.40;99.90;;;;;;4960358;28;20043;-77
2021/05/10 11:13:28;;;;;;;5.95;2.10;;;19.80;99.90;;;;;;4959372;28;21800;-77
2021/05/10 11:16:00;;;;;;;9.15;2.72;;;19.60;99.90;;;;;;4963630;28;20092;-76
2021/05/10 11:19:05;;;;;;;8.60;2.90;;;20.10;99.90;;;;;;4957565;28;20035;-74
2021/05/10 11:21:31;;;;;;;5.40;2.28;;;20.20;99.90;;;;;;4961817;28;20031;-74
2021/05/10 11:24:02;;;;;;;3.92;2.00;;;21.00;99.90;;;;;;4965122;28;20113;-69
2021/05/10 11:26:51;;;;;;;9.68;2.60;;;20.60;99.90;;;;;;4959799;28;20049;-74
2021/05/10 11:29:26;;;;;;;8.40;2.70;;;20.80;99.90;;;;;;4958808;28;20122;-75
2021/05/10 11:32:11;;;;;;;9.40;2.58;;;21.10;99.90;;;;;;4963185;28;20031;-75
2021/05/10 11:34:38;;;;;;;8.90;3.13;;;21.10;99.90;;;;;;4958760;28;20630;-76
2021/05/10 11:37:05;;;;;;;5.20;2.30;;;21.70;99.90;;;;;;4960897;28;20169;-74
2021/05/10 11:39:33;;;;;;;7.38;3.03;;;21.70;99.90;;;;;;4960740;28;20528;-75
2021/05/10 11:42:01;;;;;;;7.38;2.97;;;21.80;99.90;;;;;;4960243;28;20031;-70
2021/05/10 11:44:35;;;;;;;9.13;3.03;;;20.80;99.90;;;;;;4960149;28;20117;-73
2021/05/10 11:47:03;;;;;;;7.25;2.75;;;20.40;99.90;;;;;;4964586;28;20026;-76
2021/05/10 11:49:36;;;;;;;12.35;2.47;;;21.10;99.90;;;;;;4958811;28;20768;-73
2021/05/10 11:52:09;;;;;;;5.25;2.00;;;20.60;99.90;;;;;;4957806;28;20038;-72
2021/05/10 11:54:39;;;;;;;6.85;2.30;;;21.30;99.90;;;;;;4970742;28;20553;-72
2021/05/10 11:57:05;;;;;;;5.93;2.17;;;21.90;99.90;;;;;;4960012;28;20030;-73
2021/05/10 12:02:14;;;;;;;3.47;1.52;;;22.40;99.90;;;;;;4960612;28;20507;-72
2021/05/10 12:04:41;;;;;;;2.72;1.35;;;21.90;99.90;;;;;;4960745;28;20038;-68
2021/05/10 12:07:07;;;;;;;4.20;1.23;;;21.60;99.90;;;;;;4958121;28;20106;-67
2021/05/10 12:09:42;;;;;;;4.15;1.33;;;21.40;99.90;;;;;;4960324;28;20031;-77
2021/05/10 12:12:13;;;;;;;4.18;1.20;;;21.90;99.90;;;;;;4956629;28;20054;-74
2021/05/10 12:14:40;;;;;;;2.60;1.20;;;22.80;99.90;;;;;;4963435;28;20031;-73
2021/05/10 12:17:10;;;;;;;10.43;1.30;;;21.90;99.90;;;;;;4956163;28;20022;-75
2021/05/10 12:19:54;;;;;;;2.00;0.80;;;21.90;99.90;;;;;;4961110;28;20035;-77
2021/05/10 12:22:44;;;;;;;3.22;1.30;;;21.60;99.90;;;;;;4963643;28;20391;-77
2021/05/10 12:25:18;;;;;;;3.53;1.45;;;22.00;99.90;;;;;;4963716;28;20041;-72
2021/05/10 12:27:47;;;;;;;3.67;1.10;;;21.90;99.90;;;;;;4963999;28;20564;-77
2021/05/10 12:30:28;;;;;;;2.67;0.98;;;22.70;99.90;;;;;;4963414;28;20019;-76
2021/05/10 12:32:56;;;;;;;2.58;1.08;;;23.30;99.90;;;;;;4963025;28;20037;-76
2021/05/10 12:35:30;;;;;;;3.00;1.10;;;23.60;99.90;;;;;;4959128;28;20066;-76
2021/05/10 12:37:57;;;;;;;2.33;1.02;;;22.70;99.90;;;;;;4961406;28;20031;-76
2021/05/10 12:40:26;;;;;;;2.30;0.93;;;23.30;99.60;;;;;;4960484;28;20034;-77
2021/05/10 12:43:13;;;;;;;8.90;1.63;;;23.40;99.90;;;;;;4964132;28;20586;-73
2021/05/10 12:45:41;;;;;;;4.18;1.08;;;23.70;99.90;;;;;;4962749;28;20055;-74
2021/05/10 12:48:15;;;;;;;2.20;0.80;;;23.60;99.00;;;;;;4963993;28;20106;-73
2021/05/10 12:50:48;;;;;;;10.63;1.15;;;23.20;97.90;;;;;;4964769;28;20023;-75
2021/05/10 12:53:14;;;;;;;11.32;1.67;;;23.80;99.70;;;;;;4964643;28;20045;-71
2021/05/10 12:55:41;;;;;;;2.90;1.00;;;23.90;99.60;;;;;;4962305;28;22286;-73
2021/05/10 12:58:25;;;;;;;2.28;1.00;;;23.10;97.70;;;;;;4961249;28;20031;-70